sensor_id;sensor_type;location;lat;lon;timestamp;temperature;humidity
35593;DHT22;64447;52.140;5.602;2024-03-22T00:00:19;11.50;99.90
35593;DHT22;64447;52.140;5.602;2024-03-22T00:02:45;11.50;99.90
35593;DHT22;64447;52.140;5.602;2024-03-22T00:05:11;11.50;99.90
35593;DHT22;64447;52.140;5.602;2024-03-22T00:07:36;11.60;99.90
35593;DHT22;64447;52.140;5.602;2024-03-22T00:10:05;11.60;99.90
35593;DHT22;64447;52.140;5.602;2024-03-22T00:12:30;11.70;99.90
35593;DHT22;64447;52.140;5.602;2024-03-22T00:14:56;11.70;99.90
35593;DHT22;64447;52.140;5.602;2024-03-22T00:17:22;11.60;99.90
35593;DHT22;64447;52.140;5.602;2024-03-22T00:19:47;11.60;99.90
35593;DHT22;64447;52.140;5.602;2024-03-22T00:22:13;11.70;99.90
35593;DHT22;64447;52.140;5.602;2024-03-22T00:24:40;11.60;99.90
35593;DHT22;64447;52.140;5.602;2024-03-22T00:27:05;11.70;99.90
35593;DHT22;64447;52.140;5.602;2024-03-22T00:29:31;11.70;99.90
35593;DHT22;64447;52.140;5.602;2024-03-22T00:31:57;11.70;99.90
35593;DHT22;64447;52.140;5.602;2024-03-22T00:34:22;11.70;99.90
35593;DHT22;64447;52.140;5.602;2024-03-22T00:36:48;11.70;99.90
35593;DHT22;64447;52.140;5.602;2024-03-22T00:39:14;11.80;99.90
35593;DHT22;64447;52.140;5.602;2024-03-22T00:41:40;11.80;99.90
35593;DHT22;64447;52.140;5.602;2024-03-22T00:44:05;11.70;99.90
35593;DHT22;64447;52.140;5.602;2024-03-22T00:46:31;11.60;99.90
35593;DHT22;64447;52.140;5.602;2024-03-22T00:48:57;11.60;99.90
35593;DHT22;64447;52.140;5.602;2024-03-22T00:51:25;11.60;99.90
35593;DHT22;64447;52.140;5.602;2024-03-22T00:53:50;11.60;99.90
35593;DHT22;64447;52.140;5.602;2024-03-22T00:56:16;11.60;99.90
35593;DHT22;64447;52.140;5.602;2024-03-22T00:58:42;11.60;99.90
35593;DHT22;64447;52.140;5.602;2024-03-22T01:01:07;11.70;99.90
35593;DHT22;64447;52.140;5.602;2024-03-22T01:03:33;11.60;99.90
35593;DHT22;64447;52.140;5.602;2024-03-22T01:05:59;11.60;99.90
35593;DHT22;64447;52.140;5.602;2024-03-22T01:08:25;11.60;99.90
35593;DHT22;64447;52.140;5.602;2024-03-22T01:10:51;11.60;99.90
35593;DHT22;64447;52.140;5.602;2024-03-22T01:13:16;11.60;99.90
35593;DHT22;64447;52.140;5.602;2024-03-22T01:15:42;11.60;99.90
35593;DHT22;64447;52.140;5.602;2024-03-22T01:18:08;11.60;99.90
35593;DHT22;64447;52.140;5.602;2024-03-22T01:20:33;11.60;99.90
35593;DHT22;64447;52.140;5.602;2024-03-22T01:23:00;11.50;99.90
35593;DHT22;64447;52.140;5.602;2024-03-22T01:25:26;11.60;99.90
35593;DHT22;64447;52.140;5.602;2024-03-22T01:27:52;11.60;99.90
35593;DHT22;64447;52.140;5.602;2024-03-22T01:30:18;11.60;99.90
35593;DHT22;64447;52.140;5.602;2024-03-22T01:32:43;11.60;99.90
35593;DHT22;64447;52.140;5.602;2024-03-22T01:35:09;11.60;99.90
35593;DHT22;64447;52.140;5.602;2024-03-22T01:37:35;11.70;99.90
35593;DHT22;64447;52.140;5.602;2024-03-22T01:40:00;11.70;99.90
35593;DHT22;64447;52.140;5.602;2024-03-22T01:42:26;11.60;99.90
35593;DHT22;64447;52.140;5.602;2024-03-22T01:44:52;11.70;99.90
35593;DHT22;64447;52.140;5.602;2024-03-22T01:47:17;11.70;99.90
35593;DHT22;64447;52.140;5.602;2024-03-22T01:49:43;11.60;99.90
35593;DHT22;64447;52.140;5.602;2024-03-22T01:52:09;11.70;99.90
35593;DHT22;64447;52.140;5.602;2024-03-22T01:54:35;11.80;99.90
35593;DHT22;64447;52.140;5.602;2024-03-22T01:57:00;11.70;99.90
35593;DHT22;64447;52.140;5.602;2024-03-22T01:59:28;11.60;99.90
35593;DHT22;64447;52.140;5.602;2024-03-22T02:01:54;11.70;99.90
35593;DHT22;64447;52.140;5.602;2024-03-22T02:04:19;11.80;99.90
35593;DHT22;64447;52.140;5.602;2024-03-22T02:06:45;11.80;99.90
35593;DHT22;64447;52.140;5.602;2024-03-22T02:09:10;11.70;99.90
35593;DHT22;64447;52.140;5.602;2024-03-22T02:11:36;11.80;99.90
35593;DHT22;64447;52.140;5.602;2024-03-22T02:14:05;11.90;99.90
35593;DHT22;64447;52.140;5.602;2024-03-22T02:16:31;11.80;99.90
35593;DHT22;64447;52.140;5.602;2024-03-22T02:18:56;11.80;99.90
35593;DHT22;64447;52.140;5.602;2024-03-22T02:21:22;11.80;99.90
35593;DHT22;64447;52.140;5.602;2024-03-22T02:23:48;11.80;99.90
35593;DHT22;64447;52.140;5.602;2024-03-22T02:26:13;11.80;99.90
35593;DHT22;64447;52.140;5.602;2024-03-22T02:28:39;11.80;99.90
35593;DHT22;64447;52.140;5.602;2024-03-22T02:31:05;11.70;99.90
35593;DHT22;64447;52.140;5.602;2024-03-22T02:33:30;11.80;99.90
35593;DHT22;64447;52.140;5.602;2024-03-22T02:35:56;11.70;99.90
35593;DHT22;64447;52.140;5.602;2024-03-22T02:38:22;11.80;99.90
35593;DHT22;64447;52.140;5.602;2024-03-22T02:40:49;11.80;99.90
35593;DHT22;64447;52.140;5.602;2024-03-22T02:43:15;11.70;99.90
35593;DHT22;64447;52.140;5.602;2024-03-22T02:45:43;11.70;99.90
35593;DHT22;64447;52.140;5.602;2024-03-22T02:48:08;11.70;99.90
35593;DHT22;64447;52.140;5.602;2024-03-22T02:50:35;11.60;99.90
35593;DHT22;64447;52.140;5.602;2024-03-22T02:53:01;11.70;99.90
35593;DHT22;64447;52.140;5.602;2024-03-22T02:55:26;11.80;99.90
35593;DHT22;64447;52.140;5.602;2024-03-22T02:57:52;11.80;99.90
35593;DHT22;64447;52.140;5.602;2024-03-22T03:00:18;11.60;99.90
35593;DHT22;64447;52.140;5.602;2024-03-22T03:02:45;11.60;99.90
35593;DHT22;64447;52.140;5.602;2024-03-22T03:05:11;11.70;99.90
35593;DHT22;64447;52.140;5.602;2024-03-22T03:07:36;11.70;99.90
35593;DHT22;64447;52.140;5.602;2024-03-22T03:10:02;11.70;99.90
35593;DHT22;64447;52.140;5.602;2024-03-22T03:12:28;11.60;99.90
35593;DHT22;64447;52.140;5.602;2024-03-22T03:14:53;11.70;99.90
35593;DHT22;64447;52.140;5.602;2024-03-22T03:17:19;11.60;99.90
35593;DHT22;64447;52.140;5.602;2024-03-22T03:19:45;11.50;99.90
35593;DHT22;64447;52.140;5.602;2024-03-22T03:22:10;11.50;99.90
35593;DHT22;64447;52.140;5.602;2024-03-22T03:24:36;11.50;99.90
35593;DHT22;64447;52.140;5.602;2024-03-22T03:27:02;11.40;99.90
35593;DHT22;64447;52.140;5.602;2024-03-22T03:29:28;11.40;99.90
35593;DHT22;64447;52.140;5.602;2024-03-22T03:31:53;11.20;99.90
35593;DHT22;64447;52.140;5.602;2024-03-22T03:34:19;11.20;99.90
35593;DHT22;64447;52.140;5.602;2024-03-22T03:36:46;11.20;99.90
35593;DHT22;64447;52.140;5.602;2024-03-22T03:39:11;11.10;99.90
35593;DHT22;64447;52.140;5.602;2024-03-22T03:41:37;11.10;99.90
35593;DHT22;64447;52.140;5.602;2024-03-22T03:44:03;11.20;99.90
35593;DHT22;64447;52.140;5.602;2024-03-22T03:46:28;11.20;99.90
35593;DHT22;64447;52.140;5.602;2024-03-22T03:48:54;11.10;99.90
35593;DHT22;64447;52.140;5.602;2024-03-22T03:51:20;11.10;99.90
35593;DHT22;64447;52.140;5.602;2024-03-22T03:53:45;11.10;99.90
35593;DHT22;64447;52.140;5.602;2024-03-22T03:56:11;11.10;99.90
35593;DHT22;64447;52.140;5.602;2024-03-22T03:58:36;11.10;99.90
35593;DHT22;64447;52.140;5.602;2024-03-22T04:01:06;11.20;99.90
35593;DHT22;64447;52.140;5.602;2024-03-22T04:03:32;11.10;99.90
35593;DHT22;64447;52.140;5.602;2024-03-22T04:05:58;11.00;99.90
35593;DHT22;64447;52.140;5.602;2024-03-22T04:08:25;11.00;99.90
35593;DHT22;64447;52.140;5.602;2024-03-22T04:10:55;10.90;99.90
35593;DHT22;64447;52.140;5.602;2024-03-22T04:13:23;10.90;99.90
35593;DHT22;64447;52.140;5.602;2024-03-22T04:15:48;10.90;99.90
35593;DHT22;64447;52.140;5.602;2024-03-22T04:18:14;10.90;99.90
35593;DHT22;64447;52.140;5.602;2024-03-22T04:20:40;10.90;99.90
35593;DHT22;64447;52.140;5.602;2024-03-22T04:23:05;10.90;99.90
35593;DHT22;64447;52.140;5.602;2024-03-22T04:25:31;10.80;99.90
35593;DHT22;64447;52.140;5.602;2024-03-22T04:27:56;10.90;99.90
35593;DHT22;64447;52.140;5.602;2024-03-22T04:30:22;10.80;99.90
35593;DHT22;64447;52.140;5.602;2024-03-22T04:32:48;10.20;99.90
35593;DHT22;64447;52.140;5.602;2024-03-22T04:35:13;10.80;99.90
35593;DHT22;64447;52.140;5.602;2024-03-22T04:37:39;10.90;99.90
35593;DHT22;64447;52.140;5.602;2024-03-22T04:40:05;10.90;99.90
35593;DHT22;64447;52.140;5.602;2024-03-22T04:42:31;10.80;99.90
35593;DHT22;64447;52.140;5.602;2024-03-22T04:44:57;10.80;99.90
35593;DHT22;64447;52.140;5.602;2024-03-22T04:47:23;10.90;99.90
35593;DHT22;64447;52.140;5.602;2024-03-22T04:49:49;11.00;99.90
35593;DHT22;64447;52.140;5.602;2024-03-22T04:52:14;10.90;99.90
35593;DHT22;64447;52.140;5.602;2024-03-22T04:54:40;10.90;99.90
35593;DHT22;64447;52.140;5.602;2024-03-22T04:57:06;10.90;99.90
35593;DHT22;64447;52.140;5.602;2024-03-22T04:59:31;10.80;99.90
35593;DHT22;64447;52.140;5.602;2024-03-22T05:01:57;10.80;99.90
35593;DHT22;64447;52.140;5.602;2024-03-22T05:04:23;10.70;99.90
35593;DHT22;64447;52.140;5.602;2024-03-22T05:06:48;10.70;99.90
35593;DHT22;64447;52.140;5.602;2024-03-22T05:09:14;10.80;99.90
35593;DHT22;64447;52.140;5.602;2024-03-22T05:11:43;10.70;99.90
35593;DHT22;64447;52.140;5.602;2024-03-22T05:14:08;10.80;99.90
35593;DHT22;64447;52.140;5.602;2024-03-22T05:16:34;10.80;99.90
35593;DHT22;64447;52.140;5.602;2024-03-22T05:19:00;10.80;99.90
35593;DHT22;64447;52.140;5.602;2024-03-22T05:21:26;10.70;99.90
35593;DHT22;64447;52.140;5.602;2024-03-22T05:23:51;10.70;99.90
35593;DHT22;64447;52.140;5.602;2024-03-22T05:26:17;10.80;99.90
35593;DHT22;64447;52.140;5.602;2024-03-22T05:28:44;10.80;99.90
35593;DHT22;64447;52.140;5.602;2024-03-22T05:31:10;10.70;99.90
35593;DHT22;64447;52.140;5.602;2024-03-22T05:33:35;10.70;99.90
35593;DHT22;64447;52.140;5.602;2024-03-22T05:36:01;10.70;99.90
35593;DHT22;64447;52.140;5.602;2024-03-22T05:38:27;10.70;99.90
35593;DHT22;64447;52.140;5.602;2024-03-22T05:40:52;10.60;99.90
35593;DHT22;64447;52.140;5.602;2024-03-22T05:43:18;10.70;99.90
35593;DHT22;64447;52.140;5.602;2024-03-22T05:45:43;10.70;99.90
35593;DHT22;64447;52.140;5.602;2024-03-22T05:48:09;10.70;99.90
35593;DHT22;64447;52.140;5.602;2024-03-22T05:50:34;10.60;99.90
35593;DHT22;64447;52.140;5.602;2024-03-22T05:53:00;10.70;99.90
35593;DHT22;64447;52.140;5.602;2024-03-22T05:55:26;10.60;99.90
35593;DHT22;64447;52.140;5.602;2024-03-22T05:57:52;10.70;99.90
35593;DHT22;64447;52.140;5.602;2024-03-22T06:00:18;10.70;99.90
35593;DHT22;64447;52.140;5.602;2024-03-22T06:02:44;10.70;99.90
35593;DHT22;64447;52.140;5.602;2024-03-22T06:05:09;10.70;99.90
35593;DHT22;64447;52.140;5.602;2024-03-22T06:07:35;10.80;99.90
35593;DHT22;64447;52.140;5.602;2024-03-22T06:10:08;10.70;99.90
35593;DHT22;64447;52.140;5.602;2024-03-22T06:12:33;10.80;99.90
35593;DHT22;64447;52.140;5.602;2024-03-22T06:14:59;10.80;99.90
35593;DHT22;64447;52.140;5.602;2024-03-22T06:17:24;10.80;99.90
35593;DHT22;64447;52.140;5.602;2024-03-22T06:19:50;10.80;99.90
35593;DHT22;64447;52.140;5.602;2024-03-22T06:22:16;10.80;99.90
35593;DHT22;64447;52.140;5.602;2024-03-22T06:24:42;10.90;99.90
35593;DHT22;64447;52.140;5.602;2024-03-22T06:27:09;10.90;99.90
35593;DHT22;64447;52.140;5.602;2024-03-22T06:29:35;10.90;99.90
35593;DHT22;64447;52.140;5.602;2024-03-22T06:32:01;11.00;99.90
35593;DHT22;64447;52.140;5.602;2024-03-22T06:34:26;10.90;99.90
35593;DHT22;64447;52.140;5.602;2024-03-22T06:36:52;10.80;99.90
35593;DHT22;64447;52.140;5.602;2024-03-22T06:39:17;10.80;99.90
35593;DHT22;64447;52.140;5.602;2024-03-22T06:41:45;10.90;99.90
35593;DHT22;64447;52.140;5.602;2024-03-22T06:44:10;11.00;99.90
35593;DHT22;64447;52.140;5.602;2024-03-22T06:46:37;10.90;99.90
35593;DHT22;64447;52.140;5.602;2024-03-22T06:49:03;10.80;99.90
35593;DHT22;64447;52.140;5.602;2024-03-22T06:51:29;10.80;99.90
35593;DHT22;64447;52.140;5.602;2024-03-22T06:53:54;10.90;99.90
35593;DHT22;64447;52.140;5.602;2024-03-22T06:56:20;10.90;99.90
35593;DHT22;64447;52.140;5.602;2024-03-22T06:58:46;11.00;99.90
35593;DHT22;64447;52.140;5.602;2024-03-22T07:01:12;11.00;99.90
35593;DHT22;64447;52.140;5.602;2024-03-22T07:03:37;11.00;99.90
35593;DHT22;64447;52.140;5.602;2024-03-22T07:06:03;11.00;99.90
35593;DHT22;64447;52.140;5.602;2024-03-22T07:08:31;11.00;99.90
35593;DHT22;64447;52.140;5.602;2024-03-22T07:10:57;11.10;99.90
35593;DHT22;64447;52.140;5.602;2024-03-22T07:13:22;11.10;99.90
35593;DHT22;64447;52.140;5.602;2024-03-22T07:15:48;11.10;99.90
35593;DHT22;64447;52.140;5.602;2024-03-22T07:18:14;11.10;99.90
35593;DHT22;64447;52.140;5.602;2024-03-22T07:20:41;11.10;99.90
35593;DHT22;64447;52.140;5.602;2024-03-22T07:23:07;11.70;99.90
35593;DHT22;64447;52.140;5.602;2024-03-22T07:25:33;11.20;99.90
35593;DHT22;64447;52.140;5.602;2024-03-22T07:27:58;11.20;99.90
35593;DHT22;64447;52.140;5.602;2024-03-22T07:30:24;11.20;99.90
35593;DHT22;64447;52.140;5.602;2024-03-22T07:32:50;11.20;99.90
35593;DHT22;64447;52.140;5.602;2024-03-22T07:35:15;11.30;99.90
35593;DHT22;64447;52.140;5.602;2024-03-22T07:37:41;11.20;99.90
35593;DHT22;64447;52.140;5.602;2024-03-22T07:40:07;11.20;99.90
35593;DHT22;64447;52.140;5.602;2024-03-22T07:42:33;11.20;99.90
35593;DHT22;64447;52.140;5.602;2024-03-22T07:44:58;11.20;99.90
35593;DHT22;64447;52.140;5.602;2024-03-22T07:47:24;11.10;99.90
35593;DHT22;64447;52.140;5.602;2024-03-22T07:49:51;11.10;99.90
35593;DHT22;64447;52.140;5.602;2024-03-22T07:52:16;11.10;99.90
35593;DHT22;64447;52.140;5.602;2024-03-22T07:54:42;11.20;99.90
35593;DHT22;64447;52.140;5.602;2024-03-22T07:57:07;11.30;99.90
35593;DHT22;64447;52.140;5.602;2024-03-22T07:59:33;11.20;99.90
35593;DHT22;64447;52.140;5.602;2024-03-22T08:01:59;11.20;99.90
35593;DHT22;64447;52.140;5.602;2024-03-22T08:04:24;11.20;99.90
35593;DHT22;64447;52.140;5.602;2024-03-22T08:06:50;11.20;99.90
35593;DHT22;64447;52.140;5.602;2024-03-22T08:09:17;11.10;99.90
35593;DHT22;64447;52.140;5.602;2024-03-22T08:11:44;11.10;99.90
35593;DHT22;64447;52.140;5.602;2024-03-22T08:14:10;11.10;99.90
35593;DHT22;64447;52.140;5.602;2024-03-22T08:16:35;11.10;99.90
35593;DHT22;64447;52.140;5.602;2024-03-22T08:19:01;11.10;99.90
35593;DHT22;64447;52.140;5.602;2024-03-22T08:21:27;11.10;99.90
35593;DHT22;64447;52.140;5.602;2024-03-22T08:23:53;11.20;99.90
35593;DHT22;64447;52.140;5.602;2024-03-22T08:26:19;11.20;99.90
35593;DHT22;64447;52.140;5.602;2024-03-22T08:28:45;11.10;99.90
35593;DHT22;64447;52.140;5.602;2024-03-22T08:31:11;11.20;99.90
35593;DHT22;64447;52.140;5.602;2024-03-22T08:33:37;11.20;99.90
35593;DHT22;64447;52.140;5.602;2024-03-22T08:36:02;11.10;99.90
35593;DHT22;64447;52.140;5.602;2024-03-22T08:38:28;11.10;99.90
35593;DHT22;64447;52.140;5.602;2024-03-22T08:40:54;11.10;99.90
35593;DHT22;64447;52.140;5.602;2024-03-22T08:43:20;11.10;99.90
35593;DHT22;64447;52.140;5.602;2024-03-22T08:45:48;11.30;99.90
35593;DHT22;64447;52.140;5.602;2024-03-22T08:48:13;11.10;99.90
35593;DHT22;64447;52.140;5.602;2024-03-22T08:50:41;11.10;99.90
35593;DHT22;64447;52.140;5.602;2024-03-22T08:53:07;11.10;99.90
35593;DHT22;64447;52.140;5.602;2024-03-22T08:55:33;11.10;99.90
35593;DHT22;64447;52.140;5.602;2024-03-22T08:57:58;11.10;99.90
35593;DHT22;64447;52.140;5.602;2024-03-22T09:00:24;11.00;99.90
35593;DHT22;64447;52.140;5.602;2024-03-22T09:02:49;11.00;99.90
35593;DHT22;64447;52.140;5.602;2024-03-22T09:05:15;11.10;99.90
35593;DHT22;64447;52.140;5.602;2024-03-22T09:07:41;11.10;99.90
35593;DHT22;64447;52.140;5.602;2024-03-22T09:10:07;11.10;99.90
35593;DHT22;64447;52.140;5.602;2024-03-22T09:12:34;11.10;99.90
35593;DHT22;64447;52.140;5.602;2024-03-22T09:15:00;11.10;99.90
35593;DHT22;64447;52.140;5.602;2024-03-22T09:17:27;11.00;99.90
35593;DHT22;64447;52.140;5.602;2024-03-22T09:19:53;11.10;99.90
35593;DHT22;64447;52.140;5.602;2024-03-22T09:22:18;11.10;99.90
35593;DHT22;64447;52.140;5.602;2024-03-22T09:24:44;11.10;99.90
35593;DHT22;64447;52.140;5.602;2024-03-22T09:27:09;11.20;99.90
35593;DHT22;64447;52.140;5.602;2024-03-22T09:29:38;11.20;99.90
35593;DHT22;64447;52.140;5.602;2024-03-22T09:32:04;11.10;99.90
35593;DHT22;64447;52.140;5.602;2024-03-22T09:34:30;11.20;99.90
35593;DHT22;64447;52.140;5.602;2024-03-22T09:36:57;11.30;99.90
35593;DHT22;64447;52.140;5.602;2024-03-22T09:39:23;11.40;99.90
35593;DHT22;64447;52.140;5.602;2024-03-22T09:41:50;11.30;99.90
35593;DHT22;64447;52.140;5.602;2024-03-22T09:44:18;11.20;99.90
35593;DHT22;64447;52.140;5.602;2024-03-22T09:46:46;11.20;99.90
35593;DHT22;64447;52.140;5.602;2024-03-22T09:49:13;11.10;99.90
35593;DHT22;64447;52.140;5.602;2024-03-22T09:51:39;11.10;99.90
35593;DHT22;64447;52.140;5.602;2024-03-22T09:54:07;11.00;99.90
35593;DHT22;64447;52.140;5.602;2024-03-22T09:56:34;11.00;99.90
35593;DHT22;64447;52.140;5.602;2024-03-22T09:59:00;11.00;99.90
35593;DHT22;64447;52.140;5.602;2024-03-22T10:01:26;11.00;99.90
35593;DHT22;64447;52.140;5.602;2024-03-22T10:03:52;11.00;99.90
35593;DHT22;64447;52.140;5.602;2024-03-22T10:06:18;11.10;99.90
35593;DHT22;64447;52.140;5.602;2024-03-22T10:08:44;11.00;99.90
35593;DHT22;64447;52.140;5.602;2024-03-22T10:11:11;11.00;99.90
35593;DHT22;64447;52.140;5.602;2024-03-22T10:13:36;11.20;99.90
35593;DHT22;64447;52.140;5.602;2024-03-22T10:16:02;11.10;99.90
35593;DHT22;64447;52.140;5.602;2024-03-22T10:18:28;11.20;99.90
35593;DHT22;64447;52.140;5.602;2024-03-22T10:21:04;11.10;99.90
35593;DHT22;64447;52.140;5.602;2024-03-22T10:23:30;11.10;99.90
35593;DHT22;64447;52.140;5.602;2024-03-22T10:25:57;11.10;99.90
35593;DHT22;64447;52.140;5.602;2024-03-22T10:28:24;11.20;99.90
35593;DHT22;64447;52.140;5.602;2024-03-22T10:30:51;11.30;99.90
35593;DHT22;64447;52.140;5.602;2024-03-22T10:33:21;11.30;99.90
35593;DHT22;64447;52.140;5.602;2024-03-22T10:35:52;11.30;99.90
35593;DHT22;64447;52.140;5.602;2024-03-22T10:38:21;11.30;99.90
35593;DHT22;64447;52.140;5.602;2024-03-22T10:40:48;11.30;99.90
35593;DHT22;64447;52.140;5.602;2024-03-22T10:43:14;11.40;99.90
35593;DHT22;64447;52.140;5.602;2024-03-22T10:45:41;11.30;99.90
35593;DHT22;64447;52.140;5.602;2024-03-22T10:48:10;11.30;99.90
35593;DHT22;64447;52.140;5.602;2024-03-22T10:50:41;11.30;99.90
35593;DHT22;64447;52.140;5.602;2024-03-22T10:53:16;11.20;99.90
35593;DHT22;64447;52.140;5.602;2024-03-22T10:55:46;11.30;99.90
35593;DHT22;64447;52.140;5.602;2024-03-22T10:58:17;11.20;99.90
35593;DHT22;64447;52.140;5.602;2024-03-22T11:00:44;11.20;99.90
35593;DHT22;64447;52.140;5.602;2024-03-22T11:03:10;11.50;99.90
35593;DHT22;64447;52.140;5.602;2024-03-22T11:05:48;11.60;99.90
35593;DHT22;64447;52.140;5.602;2024-03-22T11:08:24;11.50;99.90
35593;DHT22;64447;52.140;5.602;2024-03-22T11:10:50;11.50;99.90
35593;DHT22;64447;52.140;5.602;2024-03-22T11:13:17;11.50;99.90
35593;DHT22;64447;52.140;5.602;2024-03-22T11:15:43;11.50;99.90
35593;DHT22;64447;52.140;5.602;2024-03-22T11:18:09;11.40;99.90
35593;DHT22;64447;52.140;5.602;2024-03-22T11:20:37;11.40;99.90
35593;DHT22;64447;52.140;5.602;2024-03-22T11:23:06;11.40;99.90
35593;DHT22;64447;52.140;5.602;2024-03-22T11:25:32;11.30;99.90
35593;DHT22;64447;52.140;5.602;2024-03-22T11:27:59;11.50;99.90
35593;DHT22;64447;52.140;5.602;2024-03-22T11:30:30;11.60;99.90
35593;DHT22;64447;52.140;5.602;2024-03-22T11:32:57;11.70;99.90
35593;DHT22;64447;52.140;5.602;2024-03-22T11:35:22;11.60;99.90
35593;DHT22;64447;52.140;5.602;2024-03-22T11:37:50;11.60;99.90
35593;DHT22;64447;52.140;5.602;2024-03-22T11:40:16;11.60;99.90
35593;DHT22;64447;52.140;5.602;2024-03-22T11:42:46;11.60;99.90
35593;DHT22;64447;52.140;5.602;2024-03-22T11:45:14;11.70;99.90
35593;DHT22;64447;52.140;5.602;2024-03-22T11:47:40;11.70;99.90
35593;DHT22;64447;52.140;5.602;2024-03-22T11:50:06;11.70;99.90
35593;DHT22;64447;52.140;5.602;2024-03-22T11:52:32;11.70;99.90
35593;DHT22;64447;52.140;5.602;2024-03-22T11:54:57;11.60;99.90
35593;DHT22;64447;52.140;5.602;2024-03-22T11:57:23;11.70;99.90
35593;DHT22;64447;52.140;5.602;2024-03-22T11:59:50;11.80;99.90
35593;DHT22;64447;52.140;5.602;2024-03-22T12:02:17;11.80;99.90
35593;DHT22;64447;52.140;5.602;2024-03-22T12:04:46;11.80;99.90
35593;DHT22;64447;52.140;5.602;2024-03-22T12:07:13;11.80;99.90
35593;DHT22;64447;52.140;5.602;2024-03-22T12:09:40;11.90;99.90
35593;DHT22;64447;52.140;5.602;2024-03-22T12:12:08;11.90;99.90
35593;DHT22;64447;52.140;5.602;2024-03-22T12:14:34;11.80;99.90
35593;DHT22;64447;52.140;5.602;2024-03-22T12:17:01;11.70;99.90
35593;DHT22;64447;52.140;5.602;2024-03-22T12:19:27;11.60;99.90
35593;DHT22;64447;52.140;5.602;2024-03-22T12:21:53;11.50;99.90
35593;DHT22;64447;52.140;5.602;2024-03-22T12:24:18;11.60;99.90
35593;DHT22;64447;52.140;5.602;2024-03-22T12:26:44;11.70;99.90
35593;DHT22;64447;52.140;5.602;2024-03-22T12:29:12;11.80;99.90
35593;DHT22;64447;52.140;5.602;2024-03-22T12:31:38;11.80;99.90
35593;DHT22;64447;52.140;5.602;2024-03-22T12:34:04;11.60;99.90
35593;DHT22;64447;52.140;5.602;2024-03-22T12:36:29;11.60;99.90
35593;DHT22;64447;52.140;5.602;2024-03-22T12:38:55;11.70;99.90
35593;DHT22;64447;52.140;5.602;2024-03-22T12:41:21;11.60;99.90
35593;DHT22;64447;52.140;5.602;2024-03-22T12:43:46;11.60;99.90
35593;DHT22;64447;52.140;5.602;2024-03-22T12:46:12;11.50;99.90
35593;DHT22;64447;52.140;5.602;2024-03-22T12:48:38;11.50;99.90
35593;DHT22;64447;52.140;5.602;2024-03-22T12:51:04;11.60;99.90
35593;DHT22;64447;52.140;5.602;2024-03-22T12:53:30;11.70;99.90
35593;DHT22;64447;52.140;5.602;2024-03-22T12:55:56;11.80;99.90
35593;DHT22;64447;52.140;5.602;2024-03-22T12:58:21;11.60;99.90
35593;DHT22;64447;52.140;5.602;2024-03-22T13:00:47;11.60;99.90
35593;DHT22;64447;52.140;5.602;2024-03-22T13:03:13;11.60;99.90
35593;DHT22;64447;52.140;5.602;2024-03-22T13:05:40;11.60;99.90
35593;DHT22;64447;52.140;5.602;2024-03-22T13:08:06;11.50;99.90
35593;DHT22;64447;52.140;5.602;2024-03-22T13:10:32;11.30;99.90
35593;DHT22;64447;52.140;5.602;2024-03-22T13:12:58;11.20;99.90
35593;DHT22;64447;52.140;5.602;2024-03-22T13:15:23;11.30;99.90
35593;DHT22;64447;52.140;5.602;2024-03-22T13:17:50;11.40;99.90
35593;DHT22;64447;52.140;5.602;2024-03-22T13:20:15;11.40;99.90
35593;DHT22;64447;52.140;5.602;2024-03-22T13:22:44;11.50;99.90
35593;DHT22;64447;52.140;5.602;2024-03-22T13:25:09;11.40;99.90
35593;DHT22;64447;52.140;5.602;2024-03-22T13:27:37;11.30;99.90
35593;DHT22;64447;52.140;5.602;2024-03-22T13:30:07;11.20;99.90
35593;DHT22;64447;52.140;5.602;2024-03-22T13:32:38;11.20;99.90
35593;DHT22;64447;52.140;5.602;2024-03-22T13:35:05;11.20;99.90
35593;DHT22;64447;52.140;5.602;2024-03-22T13:37:31;11.30;99.90
35593;DHT22;64447;52.140;5.602;2024-03-22T13:39:57;11.40;99.90
35593;DHT22;64447;52.140;5.602;2024-03-22T13:42:22;11.30;99.90
35593;DHT22;64447;52.140;5.602;2024-03-22T13:44:48;11.10;99.90
35593;DHT22;64447;52.140;5.602;2024-03-22T13:47:13;11.10;99.90
35593;DHT22;64447;52.140;5.602;2024-03-22T13:49:39;11.00;99.90
35593;DHT22;64447;52.140;5.602;2024-03-22T13:52:09;11.00;99.90
35593;DHT22;64447;52.140;5.602;2024-03-22T13:54:35;11.00;99.90
35593;DHT22;64447;52.140;5.602;2024-03-22T13:57:00;10.90;99.90
35593;DHT22;64447;52.140;5.602;2024-03-22T13:59:29;10.80;99.90
35593;DHT22;64447;52.140;5.602;2024-03-22T14:01:55;10.80;99.90
35593;DHT22;64447;52.140;5.602;2024-03-22T14:04:22;10.00;99.90
35593;DHT22;64447;52.140;5.602;2024-03-22T14:06:47;10.80;99.90
35593;DHT22;64447;52.140;5.602;2024-03-22T14:09:13;10.90;99.90
35593;DHT22;64447;52.140;5.602;2024-03-22T14:11:39;10.90;99.90
35593;DHT22;64447;52.140;5.602;2024-03-22T14:14:04;11.10;99.90
35593;DHT22;64447;52.140;5.602;2024-03-22T14:16:30;11.40;99.90
35593;DHT22;64447;52.140;5.602;2024-03-22T14:18:55;11.40;99.90
35593;DHT22;64447;52.140;5.602;2024-03-22T14:21:21;11.40;99.90
35593;DHT22;64447;52.140;5.602;2024-03-22T14:23:55;11.40;99.90
35593;DHT22;64447;52.140;5.602;2024-03-22T14:26:21;11.40;99.90
35593;DHT22;64447;52.140;5.602;2024-03-22T14:28:48;11.30;99.90
35593;DHT22;64447;52.140;5.602;2024-03-22T14:31:15;11.20;99.90
35593;DHT22;64447;52.140;5.602;2024-03-22T14:33:40;11.40;99.90
35593;DHT22;64447;52.140;5.602;2024-03-22T14:36:07;11.60;99.90
35593;DHT22;64447;52.140;5.602;2024-03-22T14:38:34;11.60;99.90
35593;DHT22;64447;52.140;5.602;2024-03-22T14:41:00;11.60;99.90
35593;DHT22;64447;52.140;5.602;2024-03-22T14:43:25;11.40;99.90
35593;DHT22;64447;52.140;5.602;2024-03-22T14:45:51;11.30;99.90
35593;DHT22;64447;52.140;5.602;2024-03-22T14:48:20;11.40;99.90
35593;DHT22;64447;52.140;5.602;2024-03-22T14:50:46;11.60;99.90
35593;DHT22;64447;52.140;5.602;2024-03-22T14:53:12;11.50;99.90
35593;DHT22;64447;52.140;5.602;2024-03-22T14:55:37;11.30;99.90
35593;DHT22;64447;52.140;5.602;2024-03-22T14:58:03;11.30;99.90
35593;DHT22;64447;52.140;5.602;2024-03-22T15:00:29;11.50;99.90
35593;DHT22;64447;52.140;5.602;2024-03-22T15:02:55;11.70;99.90
35593;DHT22;64447;52.140;5.602;2024-03-22T15:05:20;11.60;99.90
35593;DHT22;64447;52.140;5.602;2024-03-22T15:07:46;11.80;99.90
35593;DHT22;64447;52.140;5.602;2024-03-22T15:10:11;11.90;99.90
35593;DHT22;64447;52.140;5.602;2024-03-22T15:12:37;12.10;99.90
35593;DHT22;64447;52.140;5.602;2024-03-22T15:15:03;12.30;99.90
35593;DHT22;64447;52.140;5.602;2024-03-22T15:17:28;12.40;99.90
35593;DHT22;64447;52.140;5.602;2024-03-22T15:19:55;12.30;99.90
35593;DHT22;64447;52.140;5.602;2024-03-22T15:22:20;12.30;99.90